createdAt,value
2022-12-11T00:02:17.584Z,100112.09
2022-12-11T00:04:49.393Z,100109.14
2022-12-11T00:07:21.183Z,100102.33
2022-12-11T00:09:52.870Z,100098.65
2022-12-11T00:12:24.540Z,100093.18
2022-12-11T00:14:56.592Z,100090.24
2022-12-11T00:17:28.295Z,100088.08
2022-12-11T00:20:00.154Z,100089.63
2022-12-11T00:22:33.809Z,100084.05
2022-12-11T00:25:06.241Z,100080.95
2022-12-11T00:27:38.058Z,100083.83
2022-12-11T00:30:13.906Z,100081.89
2022-12-11T00:32:45.775Z,100076.38
2022-12-11T00:35:17.542Z,100079.23
2022-12-11T00:37:49.959Z,100073.10
2022-12-11T00:40:27.044Z,100071.00
2022-12-11T00:42:58.635Z,100074.56
2022-12-11T00:45:30.694Z,100072.52
2022-12-11T00:48:02.437Z,100071.63
2022-12-11T00:50:34.111Z,100075.14
2022-12-11T00:53:07.221Z,100077.00
2022-12-11T00:55:41.955Z,100075.94
2022-12-11T00:58:13.902Z,100078.90
2022-12-11T01:00:45.632Z,100086.94
2022-12-11T01:03:18.487Z,100086.37
2022-12-11T01:05:57.191Z,100086.85
2022-12-11T01:08:32.706Z,100082.91
2022-12-11T01:11:09.384Z,100082.43
2022-12-11T01:13:41.853Z,100084.05
2022-12-11T01:16:15.460Z,100088.09
2022-12-11T01:18:47.195Z,100090.13
2022-12-11T01:21:19.072Z,100089.74
2022-12-11T01:23:52.697Z,100089.77
2022-12-11T01:26:24.667Z,100084.77
2022-12-11T01:28:56.700Z,100083.31
2022-12-11T01:31:30.027Z,100081.09
2022-12-11T01:34:01.699Z,100076.60
2022-12-11T01:36:33.361Z,100078.77
2022-12-11T01:39:05.127Z,100084.76
2022-12-11T01:41:36.820Z,100088.35
2022-12-11T01:44:29.852Z,100087.90
2022-12-11T01:47:01.454Z,100082.64
2022-12-11T01:49:33.145Z,100082.87
2022-12-11T01:52:09.027Z,100079.95
2022-12-11T01:54:40.951Z,100078.41
2022-12-11T01:57:14.676Z,100073.92
2022-12-11T01:59:48.194Z,100069.94
2022-12-11T02:02:24.739Z,100074.56
2022-12-11T02:04:56.516Z,100072.87
2022-12-11T02:07:38.695Z,100075.11
2022-12-11T02:10:17.759Z,100072.09
2022-12-11T02:13:01.956Z,100071.19
2022-12-11T02:15:37.780Z,100073.36
2022-12-11T02:18:21.313Z,100075.33
2022-12-11T02:20:59.959Z,100076.02
2022-12-11T02:23:54.618Z,100068.96
2022-12-11T02:27:11.716Z,100065.17
2022-12-11T02:29:50.655Z,100067.67
2022-12-11T02:32:28.156Z,100065.91
2022-12-11T02:35:05.801Z,100066.05
2022-12-11T02:37:41.059Z,100062.53
2022-12-11T02:40:21.351Z,100065.89
2022-12-11T02:43:02.426Z,100067.91
2022-12-11T02:45:35.418Z,100066.90
2022-12-11T02:48:10.866Z,100063.13
2022-12-11T02:50:48.280Z,100062.88
2022-12-11T02:53:25.577Z,100060.59
2022-12-11T02:56:05.212Z,100057.91
2022-12-11T02:58:38.882Z,100059.35
2022-12-11T03:01:11.150Z,100055.33
2022-12-11T03:03:42.942Z,100060.38
2022-12-11T03:06:19.417Z,100059.23
2022-12-11T03:08:52.081Z,100055.44
2022-12-11T03:11:23.716Z,100056.00
2022-12-11T03:13:56.268Z,100059.23
2022-12-11T03:16:35.786Z,100066.98
2022-12-11T03:19:18.385Z,100066.30
2022-12-11T03:21:54.816Z,100065.75
2022-12-11T03:24:34.561Z,100065.95
2022-12-11T03:27:14.231Z,100060.09
2022-12-11T03:29:56.127Z,100056.65
2022-12-11T03:32:34.697Z,100050.75
2022-12-11T03:35:14.886Z,100053.70
2022-12-11T03:37:49.040Z,100059.45
2022-12-11T03:40:27.380Z,100067.16
2022-12-11T03:43:00.889Z,100064.13
2022-12-11T03:45:34.606Z,100064.66
2022-12-11T03:48:07.433Z,100067.06
2022-12-11T03:50:41.071Z,100067.16
2022-12-11T03:53:13.120Z,100061.38
2022-12-11T03:55:46.139Z,100056.41
2022-12-11T03:58:17.931Z,100055.35
2022-12-11T04:00:49.599Z,100052.98
2022-12-11T04:03:21.258Z,100056.97
2022-12-11T04:05:54.677Z,100055.48
2022-12-11T04:08:26.746Z,100056.95
2022-12-11T04:11:12.438Z,100058.06
2022-12-11T04:13:44.417Z,100059.14
2022-12-11T04:16:16.122Z,100065.14
2022-12-11T04:19:05.189Z,100066.85
2022-12-11T04:21:54.412Z,100063.42
2022-12-11T04:24:26.015Z,100061.45
2022-12-11T04:26:57.688Z,100058.96
2022-12-11T04:29:29.357Z,100056.20
2022-12-11T04:32:01.198Z,100052.70
2022-12-11T04:34:32.896Z,100048.27
2022-12-11T04:37:04.556Z,100047.02
2022-12-11T04:39:36.167Z,100040.85
2022-12-11T04:42:08.975Z,100038.02
2022-12-11T04:44:40.600Z,100034.91
2022-12-11T04:47:12.334Z,100028.69
2022-12-11T04:49:43.992Z,100026.02
2022-12-11T04:52:15.650Z,100024.00
2022-12-11T04:54:47.408Z,100023.95
2022-12-11T04:57:20.820Z,100028.09
2022-12-11T04:59:52.431Z,100023.92
2022-12-11T05:02:24.080Z,100026.60
2022-12-11T05:04:55.905Z,100027.48
2022-12-11T05:07:27.564Z,100028.36
2022-12-11T05:09:59.157Z,100025.83
2022-12-11T05:12:31.094Z,100026.11
2022-12-11T05:15:02.900Z,100024.20
2022-12-11T05:17:34.755Z,100018.94
2022-12-11T05:20:13.718Z,100018.73
2022-12-11T05:22:51.910Z,100015.27
2022-12-11T05:25:23.636Z,100006.64
2022-12-11T05:27:55.308Z,100001.29
2022-12-11T05:30:27.152Z,100000.42
2022-12-11T05:32:58.977Z,99996.30
2022-12-11T05:35:30.626Z,99995.60
2022-12-11T05:38:02.265Z,99996.46
2022-12-11T05:40:33.911Z,100003.71
2022-12-11T05:43:05.581Z,100000.06
2022-12-11T05:45:37.454Z,100004.73
2022-12-11T05:48:10.607Z,100005.30
2022-12-11T05:50:42.266Z,100005.60
2022-12-11T05:53:13.990Z,100007.75
2022-12-11T05:55:45.876Z,100009.21
2022-12-11T05:58:17.507Z,100009.27
2022-12-11T06:00:49.261Z,100006.84
2022-12-11T06:03:20.917Z,100003.95
2022-12-11T06:05:52.599Z,100006.84
2022-12-11T06:08:24.290Z,100007.00
2022-12-11T06:10:55.924Z,100005.34
2022-12-11T06:13:27.618Z,100004.98
2022-12-11T06:16:03.711Z,100006.29
2022-12-11T06:18:38.900Z,100006.36
2022-12-11T06:21:21.479Z,100005.92
2022-12-11T06:23:54.933Z,100003.51
2022-12-11T06:26:27.124Z,100000.45
2022-12-11T06:28:58.952Z,100004.02
2022-12-11T06:31:30.651Z,100008.27
2022-12-11T06:34:02.349Z,100006.14
2022-12-11T06:36:34.038Z,100004.33
2022-12-11T06:39:05.757Z,100005.59
2022-12-11T06:41:37.404Z,100005.42
2022-12-11T06:44:09.053Z,100005.32
2022-12-11T06:46:40.728Z,100008.52
2022-12-11T06:49:12.382Z,100013.23
2022-12-11T06:51:44.069Z,100008.65
2022-12-11T06:54:15.693Z,100009.55
2022-12-11T06:56:47.650Z,100012.11
2022-12-11T06:59:19.282Z,100008.98
2022-12-11T07:01:51.012Z,100004.94
2022-12-11T07:04:24.787Z,100007.81
2022-12-11T07:06:56.614Z,100007.05
2022-12-11T07:09:28.479Z,100012.48
2022-12-11T07:12:00.203Z,100009.77
2022-12-11T07:14:31.961Z,100006.55
2022-12-11T07:17:03.932Z,100004.31
2022-12-11T07:19:36.001Z,100007.60
2022-12-11T07:22:07.728Z,100010.78
2022-12-11T07:24:39.802Z,100017.13
2022-12-11T07:27:11.586Z,100015.11
2022-12-11T07:29:43.452Z,100016.06
2022-12-11T07:32:15.560Z,100016.07
2022-12-11T07:34:52.017Z,100021.57
2022-12-11T07:37:23.951Z,100023.96
2022-12-11T07:39:55.611Z,100023.02
2022-12-11T07:42:28.013Z,100026.20
2022-12-11T07:45:00.157Z,100028.80
2022-12-11T07:47:31.803Z,100028.45
2022-12-11T07:50:03.477Z,100028.53
2022-12-11T07:52:35.568Z,100029.66
2022-12-11T07:55:09.255Z,100032.73
2022-12-11T07:57:41.262Z,100031.21
2022-12-11T08:00:27.031Z,100022.67
2022-12-11T08:02:59.106Z,100022.20
2022-12-11T08:05:30.792Z,100022.92
2022-12-11T08:08:02.466Z,100024.27
2022-12-11T08:10:34.175Z,100019.39
2022-12-11T08:13:05.772Z,100013.65
2022-12-11T08:15:38.478Z,100009.23
2022-12-11T08:18:10.043Z,100016.25
2022-12-11T08:20:41.774Z,100012.70
2022-12-11T08:23:13.417Z,100010.16
2022-12-11T08:25:45.116Z,100009.46
2022-12-11T08:28:17.069Z,100009.13
2022-12-11T08:30:49.035Z,100004.77
2022-12-11T08:33:21.379Z,100008.56
2022-12-11T08:35:53.183Z,100000.38
2022-12-11T08:38:25.734Z,99996.77
2022-12-11T08:40:59.376Z,99992.83
2022-12-11T08:43:31.671Z,99988.92
2022-12-11T08:46:03.697Z,99990.06
2022-12-11T08:48:36.774Z,99989.79
2022-12-11T08:51:12.297Z,99987.52
2022-12-11T08:53:44.842Z,99988.52
2022-12-11T08:56:18.031Z,99988.07
2022-12-11T08:58:51.364Z,99985.58
2022-12-11T09:01:25.498Z,99983.00
2022-12-11T09:03:58.052Z,99985.92
2022-12-11T09:06:30.960Z,99989.85
2022-12-11T09:09:04.900Z,99990.55
2022-12-11T09:11:38.431Z,99995.42
2022-12-11T09:14:10.438Z,100000.90
2022-12-11T09:16:43.199Z,100003.50
2022-12-11T09:19:16.547Z,100004.56
2022-12-11T09:21:48.996Z,99999.73
2022-12-11T09:24:20.883Z,99998.02
2022-12-11T09:26:52.586Z,99993.62
2022-12-11T09:29:24.669Z,99989.41
2022-12-11T09:31:56.850Z,99981.52
2022-12-11T09:34:29.546Z,99972.73
2022-12-11T09:37:02.523Z,99969.27
2022-12-11T09:39:34.477Z,99967.44
2022-12-11T09:42:15.459Z,99965.74
2022-12-11T09:44:51.277Z,99961.15
2022-12-11T09:47:28.233Z,99961.20
2022-12-11T09:50:15.545Z,99963.73
2022-12-11T09:53:00.819Z,99961.06
2022-12-11T09:55:44.119Z,99961.62
2022-12-11T09:58:26.582Z,99962.22
2022-12-11T10:01:04.905Z,99957.50
2022-12-11T10:04:02.236Z,99955.23
2022-12-11T10:06:40.591Z,99953.34
2022-12-11T10:09:21.132Z,99954.73
2022-12-11T10:12:17.186Z,99954.24
2022-12-11T10:15:15.936Z,99951.05
2022-12-11T10:17:48.261Z,99951.98
2022-12-11T10:20:27.469Z,99950.33
2022-12-11T10:23:00.332Z,99948.96
2022-12-11T10:25:36.123Z,99949.50
2022-12-11T10:28:15.289Z,99940.86
2022-12-11T10:30:55.227Z,99934.63
2022-12-11T10:33:35.827Z,99927.35
2022-12-11T10:36:09.270Z,99921.38
2022-12-11T10:38:46.178Z,99918.91
2022-12-11T10:41:22.746Z,99910.52
2022-12-11T10:43:55.484Z,99906.04
2022-12-11T10:46:29.842Z,99903.64
2022-12-11T10:49:02.786Z,99901.92
2022-12-11T10:51:38.621Z,99903.75
2022-12-11T10:54:30.250Z,99892.87
2022-12-11T10:57:04.402Z,99880.06
2022-12-11T10:59:42.188Z,99882.66
2022-12-11T11:02:24.825Z,99886.94
2022-12-11T11:04:58.465Z,99889.48
2022-12-11T11:07:33.279Z,99886.73
2022-12-11T11:10:16.392Z,99884.48
2022-12-11T11:12:49.688Z,99883.20
2022-12-11T11:15:27.105Z,99883.26
2022-12-11T11:18:02.933Z,99885.15
2022-12-11T11:20:36.977Z,99880.84
2022-12-11T11:23:17.826Z,99877.10
2022-12-11T11:25:56.016Z,99881.89
2022-12-11T11:28:30.497Z,99872.27
2022-12-11T11:31:06.643Z,99869.30
2022-12-11T11:33:46.617Z,99861.62
2022-12-11T11:36:24.100Z,99866.51
2022-12-11T11:39:08.990Z,99862.59
2022-12-11T11:41:50.630Z,99865.88
2022-12-11T11:44:30.126Z,99866.24
2022-12-11T11:47:06.152Z,99864.88
2022-12-11T11:49:51.066Z,99859.46
2022-12-11T11:52:30.357Z,99853.78
2022-12-11T11:55:10.325Z,99854.63
2022-12-11T11:57:46.528Z,99851.02
2022-12-11T12:00:27.613Z,99843.16
2022-12-11T12:03:10.694Z,99845.30
2022-12-11T12:05:51.472Z,99835.17
2022-12-11T12:08:34.888Z,99827.77
2022-12-11T12:11:15.001Z,99824.36
2022-12-11T12:13:57.549Z,99824.27
2022-12-11T12:16:55.391Z,99827.50
2022-12-11T12:19:47.158Z,99826.95
2022-12-11T12:22:31.396Z,99822.39
2022-12-11T12:25:16.748Z,99817.41
2022-12-11T12:27:55.114Z,99816.93
2022-12-11T12:30:28.116Z,99811.88
2022-12-11T12:33:16.286Z,99815.70
2022-12-11T12:36:00.839Z,99814.25
2022-12-11T12:38:44.309Z,99808.89
2022-12-11T12:41:22.823Z,99808.63
2022-12-11T12:44:08.260Z,99804.11
2022-12-11T12:46:58.586Z,99802.64
2022-12-11T12:49:43.043Z,99801.16
2022-12-11T12:52:17.881Z,99800.45
2022-12-11T12:55:05.953Z,99798.42
2022-12-11T12:57:39.050Z,99801.52
2022-12-11T13:00:33.203Z,99801.35
2022-12-11T13:03:17.039Z,99805.88
2022-12-11T13:06:00.775Z,99805.95
2022-12-11T13:08:38.399Z,99808.23
2022-12-11T13:11:13.184Z,99802.13
2022-12-11T13:13:54.488Z,99797.25
2022-12-11T13:16:38.370Z,99798.65
2022-12-11T13:19:28.108Z,99796.62
2022-12-11T13:22:04.055Z,99791.43
2022-12-11T13:24:47.150Z,99793.80
2022-12-11T13:27:37.242Z,99790.50
2022-12-11T13:30:26.334Z,99795.63
2022-12-11T13:33:15.923Z,99800.37
2022-12-11T13:35:48.153Z,99801.83
2022-12-11T13:38:22.145Z,99793.27
2022-12-11T13:40:57.710Z,99791.50
2022-12-11T13:43:32.403Z,99791.54
2022-12-11T13:46:11.013Z,99793.44
2022-12-11T13:48:49.608Z,99794.60
2022-12-11T13:51:24.169Z,99798.88
2022-12-11T13:54:10.651Z,99795.77
2022-12-11T13:56:56.957Z,99793.36
2022-12-11T13:59:32.914Z,99790.17
2022-12-11T14:02:14.658Z,99796.52
2022-12-11T14:04:47.139Z,99797.57
2022-12-11T14:07:25.983Z,99811.18
2022-12-11T14:10:01.879Z,99810.23
2022-12-11T14:12:34.616Z,99808.69
2022-12-11T14:15:08.813Z,99805.91
2022-12-11T14:17:42.688Z,99802.88
2022-12-11T14:20:24.251Z,99802.74
2022-12-11T14:23:07.876Z,99805.30
2022-12-11T14:25:39.674Z,99802.89
2022-12-11T14:28:18.788Z,99803.16
2022-12-11T14:30:53.516Z,99804.11
2022-12-11T14:33:28.874Z,99808.73
2022-12-11T14:36:01.528Z,99812.52
2022-12-11T14:38:37.106Z,99804.68
2022-12-11T14:41:18.244Z,99805.17
2022-12-11T14:43:53.004Z,99802.89
2022-12-11T14:46:30.597Z,99801.22
2022-12-11T14:49:08.026Z,99795.42
2022-12-11T14:51:43.679Z,99795.06
2022-12-11T14:54:24.215Z,99796.20
2022-12-11T14:56:56.969Z,99795.61
2022-12-11T14:59:32.153Z,99793.27
2022-12-11T15:02:22.938Z,99799.38
2022-12-11T15:05:07.350Z,99795.71
2022-12-11T15:07:39.544Z,99795.03
2022-12-11T15:10:28.267Z,99792.82
2022-12-11T15:13:00.311Z,99792.66
2022-12-11T15:15:34.911Z,99794.91
2022-12-11T15:18:22.531Z,99797.11
2022-12-11T15:20:57.477Z,99794.95
2022-12-11T15:23:29.504Z,99795.73
2022-12-11T15:26:03.285Z,99795.20
2022-12-11T15:28:37.168Z,99795.02
2022-12-11T15:31:25.036Z,99793.85
2022-12-11T15:33:57.163Z,99795.66
2022-12-11T15:36:32.343Z,99793.10
2022-12-11T15:39:05.717Z,99794.02
2022-12-11T15:41:37.872Z,99792.61
2022-12-11T15:44:20.405Z,99792.56
2022-12-11T15:46:52.231Z,99794.77
2022-12-11T15:49:24.697Z,99794.89
2022-12-11T15:51:56.427Z,99794.08
2022-12-11T15:54:28.215Z,99793.35
2022-12-11T15:57:03.170Z,99790.70
2022-12-11T15:59:35.970Z,99792.91
2022-12-11T16:02:14.274Z,99793.55
2022-12-11T16:04:46.257Z,99793.83
2022-12-11T16:07:21.262Z,99792.27
2022-12-11T16:09:53.601Z,99791.61
2022-12-11T16:12:25.365Z,99791.86
2022-12-11T16:14:57.127Z,99793.13
2022-12-11T16:17:28.788Z,99793.13
2022-12-11T16:20:00.477Z,99789.63
2022-12-11T16:22:32.348Z,99787.98
2022-12-11T16:25:04.176Z,99788.30
2022-12-11T16:27:36.014Z,99793.27
2022-12-11T16:30:14.210Z,99793.05
2022-12-11T16:32:46.082Z,99797.57
2022-12-11T16:35:17.876Z,99795.33
2022-12-11T16:37:51.784Z,99795.86
2022-12-11T16:40:31.664Z,99791.67
2022-12-11T16:43:03.988Z,99788.66
2022-12-11T16:45:35.781Z,99789.08
2022-12-11T16:48:08.285Z,99789.39
2022-12-11T16:50:42.260Z,99785.78
2022-12-11T16:53:15.468Z,99786.06
2022-12-11T16:55:47.176Z,99790.21
2022-12-11T16:58:20.201Z,99792.11
2022-12-11T17:00:51.983Z,99791.80
2022-12-11T17:03:23.731Z,99782.67
2022-12-11T17:05:55.589Z,99787.52
2022-12-11T17:08:28.302Z,99788.66
2022-12-11T17:11:00.007Z,99791.68
2022-12-11T17:13:35.943Z,99783.54
2022-12-11T17:16:10.096Z,99781.92
2022-12-11T17:18:42.942Z,99779.77
2022-12-11T17:21:16.644Z,99780.27
2022-12-11T17:23:48.586Z,99778.54
2022-12-11T17:26:21.432Z,99778.67
2022-12-11T17:28:53.473Z,99780.84
2022-12-11T17:31:25.679Z,99782.05
2022-12-11T17:34:00.716Z,99782.84
2022-12-11T17:36:32.957Z,99782.19
2022-12-11T17:39:04.817Z,99782.50
2022-12-11T17:41:36.576Z,99782.88
2022-12-11T17:44:08.695Z,99780.66
2022-12-11T17:46:40.706Z,99781.50
2022-12-11T17:49:13.235Z,99781.38
2022-12-11T17:51:45.151Z,99781.98
2022-12-11T17:54:16.845Z,99785.54
2022-12-11T17:56:49.233Z,99780.30
2022-12-11T17:59:20.959Z,99785.08
2022-12-11T18:01:52.737Z,99789.21
2022-12-11T18:04:24.698Z,99792.34
2022-12-11T18:06:56.558Z,99785.72
2022-12-11T18:09:28.193Z,99789.41
2022-12-11T18:12:00.006Z,99792.42
2022-12-11T18:14:31.928Z,99794.29
2022-12-11T18:17:04.029Z,99794.36
2022-12-11T18:19:35.740Z,99796.06
2022-12-11T18:22:07.607Z,99797.16
2022-12-11T18:24:39.416Z,99797.09
2022-12-11T18:27:12.552Z,99795.34
2022-12-11T18:29:44.278Z,99797.54
2022-12-11T18:32:16.213Z,99796.05
2022-12-11T18:34:48.399Z,99796.81
2022-12-11T18:37:24.723Z,99793.38
2022-12-11T18:39:59.434Z,99794.58
2022-12-11T18:42:33.341Z,99796.30
2022-12-11T18:45:07.029Z,99796.48
2022-12-11T18:47:39.606Z,99797.54
2022-12-11T18:50:19.312Z,99795.52
2022-12-11T18:52:55.628Z,99793.67
2022-12-11T18:55:27.779Z,99789.37
2022-12-11T18:57:59.907Z,99790.38
2022-12-11T19:00:32.329Z,99787.40
2022-12-11T19:03:04.265Z,99789.52
2022-12-11T19:05:37.056Z,99789.31
2022-12-11T19:08:09.775Z,99789.98
2022-12-11T19:10:47.431Z,99793.29
2022-12-11T19:13:19.539Z,99793.36
2022-12-11T19:15:51.990Z,99795.97
2022-12-11T19:18:24.568Z,99796.77
2022-12-11T19:21:04.844Z,99795.65
2022-12-11T19:23:40.349Z,99797.04
2022-12-11T19:26:15.579Z,99795.66
2022-12-11T19:28:47.754Z,99794.05
2022-12-11T19:31:23.382Z,99796.86
2022-12-11T19:33:55.257Z,99799.85
2022-12-11T19:36:30.465Z,99796.02
2022-12-11T19:39:07.056Z,99795.63
2022-12-11T19:41:42.220Z,99798.05
2022-12-11T19:44:14.317Z,99795.84
2022-12-11T19:46:46.175Z,99800.30
2022-12-11T19:49:18.773Z,99797.92
2022-12-11T19:51:51.582Z,99796.52
2022-12-11T19:54:24.762Z,99795.38
2022-12-11T19:56:56.885Z,99797.80
2022-12-11T19:59:28.854Z,99799.10
2022-12-11T20:02:00.857Z,99797.84
2022-12-11T20:04:32.836Z,99794.85
2022-12-11T20:07:05.092Z,99792.94
2022-12-11T20:09:37.116Z,99792.83
2022-12-11T20:12:10.761Z,99795.86
2022-12-11T20:14:42.682Z,99794.23
2022-12-11T20:17:15.169Z,99793.73
2022-12-11T20:19:47.402Z,99792.21
2022-12-11T20:22:19.627Z,99788.45
2022-12-11T20:24:52.363Z,99790.31
2022-12-11T20:27:26.217Z,99785.63
2022-12-11T20:29:57.912Z,99783.33
2022-12-11T20:32:30.171Z,99780.16
2022-12-11T20:35:02.026Z,99782.69
2022-12-11T20:37:34.177Z,99777.24
2022-12-11T20:40:07.503Z,99776.19
2022-12-11T20:42:39.151Z,99775.77
2022-12-11T20:45:13.766Z,99774.60
2022-12-11T20:47:46.369Z,99776.01
2022-12-11T20:50:35.834Z,99774.86
2022-12-11T20:53:07.639Z,99777.77
2022-12-11T20:55:43.641Z,99776.83
2022-12-11T20:58:15.406Z,99774.83
2022-12-11T21:00:48.685Z,99774.04
2022-12-11T21:03:20.524Z,99770.52
2022-12-11T21:05:52.215Z,99768.05
2022-12-11T21:08:24.019Z,99769.88
2022-12-11T21:10:55.903Z,99772.33
2022-12-11T21:13:27.572Z,99777.27
2022-12-11T21:16:04.072Z,99779.42
2022-12-11T21:18:36.567Z,99778.55
2022-12-11T21:21:08.787Z,99776.71
2022-12-11T21:23:40.780Z,99775.89
2022-12-11T21:26:12.920Z,99775.67
2022-12-11T21:28:45.100Z,99772.79
2022-12-11T21:31:19.133Z,99775.16
2022-12-11T21:33:51.516Z,99774.30
2022-12-11T21:36:23.320Z,99780.67
2022-12-11T21:38:54.978Z,99778.11
2022-12-11T21:41:27.294Z,99778.40
2022-12-11T21:46:51.231Z,99780.33
2022-12-11T21:49:22.901Z,99780.26
2022-12-11T21:51:54.755Z,99779.11
2022-12-11T21:54:26.458Z,99782.14
2022-12-11T21:56:58.316Z,99780.09
2022-12-11T21:59:30.292Z,99777.55
2022-12-11T22:02:02.625Z,99777.36
2022-12-11T22:04:34.321Z,99772.76
2022-12-11T22:07:05.926Z,99771.40
2022-12-11T22:09:37.622Z,99765.05
2022-12-11T22:12:11.095Z,99763.24
2022-12-11T22:14:42.701Z,99763.55
2022-12-11T22:17:14.424Z,99761.80
2022-12-11T22:19:46.318Z,99759.05
2022-12-11T22:22:17.928Z,99749.60
2022-12-11T22:24:50.780Z,99753.36
2022-12-11T22:27:23.968Z,99749.59
2022-12-11T22:29:56.003Z,99747.96
2022-12-11T22:32:27.934Z,99746.16
2022-12-11T22:34:59.712Z,99748.88
2022-12-11T22:37:31.469Z,99748.70
2022-12-11T22:40:03.131Z,99750.84
2022-12-11T22:42:44.181Z,99753.27
2022-12-11T22:45:16.330Z,99749.14
2022-12-11T22:47:48.044Z,99752.27
2022-12-11T22:50:24.015Z,99753.77
2022-12-11T22:52:55.792Z,99753.18
2022-12-11T22:55:27.451Z,99758.09
2022-12-11T22:57:59.230Z,99756.67
2022-12-11T23:00:30.867Z,99756.94
2022-12-11T23:03:09.254Z,99756.96
2022-12-11T23:05:43.383Z,99756.16
2022-12-11T23:08:15.110Z,99759.77
2022-12-11T23:10:56.063Z,99760.73
2022-12-11T23:13:27.977Z,99761.50
2022-12-11T23:15:59.832Z,99757.27
2022-12-11T23:18:31.719Z,99759.05
2022-12-11T23:21:03.734Z,99762.59
2022-12-11T23:23:35.654Z,99764.93
2022-12-11T23:26:09.379Z,99764.51
2022-12-11T23:28:41.669Z,99766.71
2022-12-11T23:31:13.853Z,99774.18
2022-12-11T23:33:46.190Z,99776.09
2022-12-11T23:36:18.294Z,99773.01
2022-12-11T23:38:54.607Z,99773.21
2022-12-11T23:41:27.260Z,99776.38
2022-12-11T23:43:59.207Z,99775.17
2022-12-11T23:46:31.095Z,99777.38
2022-12-11T23:49:03.093Z,99773.88
2022-12-11T23:51:35.332Z,99768.60
2022-12-11T23:54:07.456Z,99769.51
2022-12-11T23:56:39.651Z,99760.64
2022-12-11T23:59:14.920Z,99758.84
